sensor_id;sensor_type;location;lat;lon;timestamp;pressure;altitude;pressure_sealevel;temperature;humidity
23341;BME280;12239;53.404;23.492;2022-07-05T00:02:08;99826.96;;;17.46;99.95
23341;BME280;12239;53.404;23.492;2022-07-05T00:04:58;99828.21;;;17.40;99.96
23341;BME280;12239;53.404;23.492;2022-07-05T00:07:47;99825.95;;;17.35;100.00
23341;BME280;12239;53.404;23.492;2022-07-05T00:10:37;99830.04;;;17.34;100.00
23341;BME280;12239;53.404;23.492;2022-07-05T00:13:26;99833.27;;;17.35;100.00
23341;BME280;12239;53.404;23.492;2022-07-05T00:16:16;99831.61;;;17.30;100.00
23341;BME280;12239;53.404;23.492;2022-07-05T00:19:05;99835.39;;;17.24;100.00
23341;BME280;12239;53.404;23.492;2022-07-05T00:21:55;99835.64;;;17.18;100.00
23341;BME280;12239;53.404;23.492;2022-07-05T00:24:45;99833.65;;;17.11;100.00
23341;BME280;12239;53.404;23.492;2022-07-05T00:27:35;99838.95;;;17.06;100.00
23341;BME280;12239;53.404;23.492;2022-07-05T00:30:24;99845.29;;;17.02;100.00
23341;BME280;12239;53.404;23.492;2022-07-05T00:33:14;99845.77;;;16.95;100.00
23341;BME280;12239;53.404;23.492;2022-07-05T00:36:04;99846.85;;;16.91;100.00
23341;BME280;12239;53.404;23.492;2022-07-05T00:38:54;99836.11;;;16.88;100.00
23341;BME280;12239;53.404;23.492;2022-07-05T00:41:43;99836.44;;;16.90;100.00
23341;BME280;12239;53.404;23.492;2022-07-05T00:44:33;99836.85;;;16.91;100.00
23341;BME280;12239;53.404;23.492;2022-07-05T00:47:23;99841.95;;;16.92;100.00
23341;BME280;12239;53.404;23.492;2022-07-05T00:50:13;99844.88;;;16.93;100.00
23341;BME280;12239;53.404;23.492;2022-07-05T00:53:02;99842.90;;;16.89;100.00
23341;BME280;12239;53.404;23.492;2022-07-05T00:55:52;99839.01;;;16.86;100.00
23341;BME280;12239;53.404;23.492;2022-07-05T00:58:42;99844.59;;;16.78;100.00
23341;BME280;12239;53.404;23.492;2022-07-05T01:01:31;99842.15;;;16.71;100.00
23341;BME280;12239;53.404;23.492;2022-07-05T01:04:21;99840.52;;;16.68;100.00
23341;BME280;12239;53.404;23.492;2022-07-05T01:07:10;99840.90;;;16.68;100.00
23341;BME280;12239;53.404;23.492;2022-07-05T01:10:00;99842.69;;;16.70;100.00
23341;BME280;12239;53.404;23.492;2022-07-05T01:12:50;99836.41;;;16.69;100.00
23341;BME280;12239;53.404;23.492;2022-07-05T01:15:39;99839.30;;;16.72;100.00
23341;BME280;12239;53.404;23.492;2022-07-05T01:18:30;99838.16;;;16.69;100.00
23341;BME280;12239;53.404;23.492;2022-07-05T01:21:20;99840.11;;;16.67;100.00
23341;BME280;12239;53.404;23.492;2022-07-05T01:24:12;99840.59;;;16.62;100.00
23341;BME280;12239;53.404;23.492;2022-07-05T01:27:02;99845.89;;;16.55;100.00
23341;BME280;12239;53.404;23.492;2022-07-05T01:29:52;99850.23;;;16.48;100.00
23341;BME280;12239;53.404;23.492;2022-07-05T01:32:42;99851.34;;;16.41;100.00
23341;BME280;12239;53.404;23.492;2022-07-05T01:35:31;99855.65;;;16.34;100.00
23341;BME280;12239;53.404;23.492;2022-07-05T01:38:21;99858.46;;;16.29;100.00
23341;BME280;12239;53.404;23.492;2022-07-05T01:41:11;99859.90;;;16.21;100.00
23341;BME280;12239;53.404;23.492;2022-07-05T01:44:00;99862.44;;;16.14;100.00
23341;BME280;12239;53.404;23.492;2022-07-05T01:46:53;99875.39;;;16.04;100.00
23341;BME280;12239;53.404;23.492;2022-07-05T01:49:45;99866.33;;;15.91;100.00
23341;BME280;12239;53.404;23.492;2022-07-05T01:52:35;99873.40;;;15.90;100.00
23341;BME280;12239;53.404;23.492;2022-07-05T01:55:25;99875.20;;;15.91;100.00
23341;BME280;12239;53.404;23.492;2022-07-05T01:58:15;99870.11;;;15.91;100.00
23341;BME280;12239;53.404;23.492;2022-07-05T02:01:05;99877.42;;;15.96;100.00
23341;BME280;12239;53.404;23.492;2022-07-05T02:03:54;99880.89;;;15.98;100.00
23341;BME280;12239;53.404;23.492;2022-07-05T02:06:44;99881.06;;;15.96;100.00
23341;BME280;12239;53.404;23.492;2022-07-05T02:09:35;99892.87;;;15.91;100.00
23341;BME280;12239;53.404;23.492;2022-07-05T02:12:24;99896.98;;;15.87;100.00
23341;BME280;12239;53.404;23.492;2022-07-05T02:15:14;99902.13;;;15.84;100.00
23341;BME280;12239;53.404;23.492;2022-07-05T02:18:04;99910.23;;;15.75;100.00
23341;BME280;12239;53.404;23.492;2022-07-05T02:20:53;99913.14;;;15.67;100.00
23341;BME280;12239;53.404;23.492;2022-07-05T02:23:43;99918.40;;;15.64;100.00
23341;BME280;12239;53.404;23.492;2022-07-05T02:26:33;99908.90;;;15.60;100.00
23341;BME280;12239;53.404;23.492;2022-07-05T02:29:22;99914.71;;;15.62;100.00
23341;BME280;12239;53.404;23.492;2022-07-05T02:32:13;99912.77;;;15.62;100.00
23341;BME280;12239;53.404;23.492;2022-07-05T02:35:03;99914.16;;;15.62;100.00
23341;BME280;12239;53.404;23.492;2022-07-05T02:37:53;99909.59;;;15.61;100.00
23341;BME280;12239;53.404;23.492;2022-07-05T02:40:42;99906.81;;;15.63;100.00
23341;BME280;12239;53.404;23.492;2022-07-05T02:43:32;99913.02;;;15.62;100.00
23341;BME280;12239;53.404;23.492;2022-07-05T02:46:22;99913.77;;;15.60;100.00
23341;BME280;12239;53.404;23.492;2022-07-05T02:49:11;99910.02;;;15.59;100.00
23341;BME280;12239;53.404;23.492;2022-07-05T02:52:02;99902.27;;;15.61;100.00
23341;BME280;12239;53.404;23.492;2022-07-05T02:54:52;99899.73;;;15.62;100.00
23341;BME280;12239;53.404;23.492;2022-07-05T02:57:41;99897.43;;;15.65;100.00
23341;BME280;12239;53.404;23.492;2022-07-05T03:00:31;99901.17;;;15.68;100.00
23341;BME280;12239;53.404;23.492;2022-07-05T03:03:20;99900.10;;;15.72;100.00
23341;BME280;12239;53.404;23.492;2022-07-05T03:06:10;99902.96;;;15.77;100.00
23341;BME280;12239;53.404;23.492;2022-07-05T03:08:59;99909.43;;;15.81;100.00
23341;BME280;12239;53.404;23.492;2022-07-05T03:11:49;99911.24;;;15.86;100.00
23341;BME280;12239;53.404;23.492;2022-07-05T03:14:38;99909.37;;;15.92;100.00
23341;BME280;12239;53.404;23.492;2022-07-05T03:17:28;99911.91;;;15.98;100.00
23341;BME280;12239;53.404;23.492;2022-07-05T03:20:18;99911.76;;;16.04;100.00
23341;BME280;12239;53.404;23.492;2022-07-05T03:22:54;99917.50;;;16.07;100.00
23341;BME280;12239;53.404;23.492;2022-07-05T03:25:44;99914.06;;;16.12;100.00
23341;BME280;12239;53.404;23.492;2022-07-05T03:28:33;99914.59;;;16.16;100.00
23341;BME280;12239;53.404;23.492;2022-07-05T03:31:23;99921.86;;;16.21;100.00
23341;BME280;12239;53.404;23.492;2022-07-05T03:34:12;99920.98;;;16.29;100.00
23341;BME280;12239;53.404;23.492;2022-07-05T03:37:02;99926.64;;;16.48;100.00
23341;BME280;12239;53.404;23.492;2022-07-05T03:39:52;99924.52;;;16.74;100.00
23341;BME280;12239;53.404;23.492;2022-07-05T03:42:41;99923.29;;;17.06;100.00
23341;BME280;12239;53.404;23.492;2022-07-05T03:45:31;99935.14;;;17.35;100.00
23341;BME280;12239;53.404;23.492;2022-07-05T03:48:20;99938.04;;;17.63;100.00
23341;BME280;12239;53.404;23.492;2022-07-05T03:51:10;99942.45;;;17.95;99.70
23341;BME280;12239;53.404;23.492;2022-07-05T03:53:59;99948.84;;;18.14;97.94
23341;BME280;12239;53.404;23.492;2022-07-05T03:56:49;99953.34;;;18.32;97.38
23341;BME280;12239;53.404;23.492;2022-07-05T03:59:38;99955.77;;;18.57;96.21
23341;BME280;12239;53.404;23.492;2022-07-05T04:02:28;99954.81;;;18.85;94.84
23341;BME280;12239;53.404;23.492;2022-07-05T04:05:18;99956.51;;;19.13;93.96
23341;BME280;12239;53.404;23.492;2022-07-05T04:08:08;99959.77;;;19.41;91.31
23341;BME280;12239;53.404;23.492;2022-07-05T04:10:57;99959.88;;;19.63;91.51
23341;BME280;12239;53.404;23.492;2022-07-05T04:13:47;99961.84;;;19.84;89.11
23341;BME280;12239;53.404;23.492;2022-07-05T04:16:36;99962.22;;;20.04;89.05
23341;BME280;12239;53.404;23.492;2022-07-05T04:19:26;99956.34;;;20.29;88.58
23341;BME280;12239;53.404;23.492;2022-07-05T04:22:15;99959.66;;;20.58;87.09
23341;BME280;12239;53.404;23.492;2022-07-05T04:25:06;99958.54;;;20.78;85.46
23341;BME280;12239;53.404;23.492;2022-07-05T04:28:07;99957.36;;;20.89;84.11
23341;BME280;12239;53.404;23.492;2022-07-05T04:30:40;99958.23;;;20.80;84.13
23341;BME280;12239;53.404;23.492;2022-07-05T04:33:29;99960.69;;;20.88;84.50
23341;BME280;12239;53.404;23.492;2022-07-05T04:36:19;99957.20;;;21.03;82.73
23341;BME280;12239;53.404;23.492;2022-07-05T04:39:08;99954.14;;;21.12;82.29
23341;BME280;12239;53.404;23.492;2022-07-05T04:41:58;99952.41;;;21.17;81.79
23341;BME280;12239;53.404;23.492;2022-07-05T04:44:48;99950.55;;;21.15;81.43
23341;BME280;12239;53.404;23.492;2022-07-05T04:47:37;99954.19;;;21.26;82.29
23341;BME280;12239;53.404;23.492;2022-07-05T04:50:27;99951.80;;;21.33;80.35
23341;BME280;12239;53.404;23.492;2022-07-05T04:53:16;99945.20;;;21.35;79.79
23341;BME280;12239;53.404;23.492;2022-07-05T04:56:06;99945.67;;;21.41;79.02
23341;BME280;12239;53.404;23.492;2022-07-05T04:58:56;99938.77;;;21.49;79.03
23341;BME280;12239;53.404;23.492;2022-07-05T05:01:25;99944.05;;;21.63;79.28
23341;BME280;12239;53.404;23.492;2022-07-05T05:04:15;99942.96;;;21.77;78.74
23341;BME280;12239;53.404;23.492;2022-07-05T05:07:04;99945.55;;;21.87;76.94
23341;BME280;12239;53.404;23.492;2022-07-05T05:09:54;99950.27;;;21.78;77.12
23341;BME280;12239;53.404;23.492;2022-07-05T05:12:43;99962.59;;;21.63;76.76
23341;BME280;12239;53.404;23.492;2022-07-05T05:15:33;99964.63;;;21.36;77.94
23341;BME280;12239;53.404;23.492;2022-07-05T05:18:23;99960.77;;;21.08;78.57
23341;BME280;12239;53.404;23.492;2022-07-05T05:21:15;99974.36;;;20.88;80.28
23341;BME280;12239;53.404;23.492;2022-07-05T05:24:05;99977.80;;;20.58;81.38
23341;BME280;12239;53.404;23.492;2022-07-05T05:26:54;99974.36;;;20.37;83.91
23341;BME280;12239;53.404;23.492;2022-07-05T05:29:44;99980.46;;;20.24;84.09
23341;BME280;12239;53.404;23.492;2022-07-05T05:32:34;99970.34;;;20.09;84.69
23341;BME280;12239;53.404;23.492;2022-07-05T05:35:23;99963.56;;;20.05;86.08
23341;BME280;12239;53.404;23.492;2022-07-05T05:38:13;99963.17;;;20.10;85.85
23341;BME280;12239;53.404;23.492;2022-07-05T05:41:03;99958.81;;;20.10;84.25
23341;BME280;12239;53.404;23.492;2022-07-05T05:43:52;99966.20;;;20.09;84.47
23341;BME280;12239;53.404;23.492;2022-07-05T05:46:42;99964.98;;;20.03;85.36
23341;BME280;12239;53.404;23.492;2022-07-05T05:49:31;99964.25;;;20.04;84.68
23341;BME280;12239;53.404;23.492;2022-07-05T05:52:21;99965.52;;;20.02;84.60
23341;BME280;12239;53.404;23.492;2022-07-05T05:55:10;99968.64;;;19.95;85.32
23341;BME280;12239;53.404;23.492;2022-07-05T05:57:49;99970.86;;;19.91;85.45
23341;BME280;12239;53.404;23.492;2022-07-05T06:00:39;99970.63;;;19.91;84.96
23341;BME280;12239;53.404;23.492;2022-07-05T06:03:28;99967.83;;;19.93;85.13
23341;BME280;12239;53.404;23.492;2022-07-05T06:06:18;99970.76;;;20.02;84.72
23341;BME280;12239;53.404;23.492;2022-07-05T06:09:07;99967.95;;;20.10;84.36
23341;BME280;12239;53.404;23.492;2022-07-05T06:11:37;99962.39;;;20.17;84.11
23341;BME280;12239;53.404;23.492;2022-07-05T06:14:26;99958.92;;;20.24;83.28
23341;BME280;12239;53.404;23.492;2022-07-05T06:17:16;99960.78;;;20.26;83.13
23341;BME280;12239;53.404;23.492;2022-07-05T06:20:07;99959.17;;;20.32;83.45
23341;BME280;12239;53.404;23.492;2022-07-05T06:22:57;99954.88;;;20.40;81.98
23341;BME280;12239;53.404;23.492;2022-07-05T06:25:47;99959.51;;;20.44;82.44
23341;BME280;12239;53.404;23.492;2022-07-05T06:28:37;99960.04;;;20.46;82.14
23341;BME280;12239;53.404;23.492;2022-07-05T06:31:26;99960.48;;;20.53;82.70
23341;BME280;12239;53.404;23.492;2022-07-05T06:34:16;99964.94;;;20.61;82.00
23341;BME280;12239;53.404;23.492;2022-07-05T06:37:05;99971.16;;;20.63;82.72
23341;BME280;12239;53.404;23.492;2022-07-05T06:39:55;99975.09;;;20.72;81.25
23341;BME280;12239;53.404;23.492;2022-07-05T06:42:45;99977.41;;;20.77;82.29
23341;BME280;12239;53.404;23.492;2022-07-05T06:45:35;99975.31;;;20.88;82.48
23341;BME280;12239;53.404;23.492;2022-07-05T06:48:24;99969.66;;;21.04;80.49
23341;BME280;12239;53.404;23.492;2022-07-05T06:51:14;99972.46;;;21.16;79.97
23341;BME280;12239;53.404;23.492;2022-07-05T06:54:04;99974.09;;;21.24;78.97
23341;BME280;12239;53.404;23.492;2022-07-05T06:56:53;99973.84;;;21.33;78.21
23341;BME280;12239;53.404;23.492;2022-07-05T06:59:44;99974.33;;;21.40;77.41
23341;BME280;12239;53.404;23.492;2022-07-05T07:02:34;99979.69;;;21.48;77.49
23341;BME280;12239;53.404;23.492;2022-07-05T07:05:23;99980.15;;;21.56;76.29
23341;BME280;12239;53.404;23.492;2022-07-05T07:08:13;99979.05;;;21.59;76.21
23341;BME280;12239;53.404;23.492;2022-07-05T07:11:20;99981.13;;;21.61;77.32
23341;BME280;12239;53.404;23.492;2022-07-05T07:14:10;99983.26;;;21.67;75.68
23341;BME280;12239;53.404;23.492;2022-07-05T07:16:59;99991.84;;;21.63;75.22
23341;BME280;12239;53.404;23.492;2022-07-05T07:19:49;99990.05;;;21.67;73.61
23341;BME280;12239;53.404;23.492;2022-07-05T07:22:38;99987.92;;;21.80;74.02
23341;BME280;12239;53.404;23.492;2022-07-05T07:25:28;99988.38;;;21.89;73.87
23341;BME280;12239;53.404;23.492;2022-07-05T07:28:17;99985.08;;;21.92;74.35
23341;BME280;12239;53.404;23.492;2022-07-05T07:31:07;99984.06;;;21.95;74.25
23341;BME280;12239;53.404;23.492;2022-07-05T07:33:39;99983.55;;;22.03;74.56
23341;BME280;12239;53.404;23.492;2022-07-05T07:36:29;99979.14;;;22.09;74.45
23341;BME280;12239;53.404;23.492;2022-07-05T07:39:19;99973.27;;;22.16;73.47
23341;BME280;12239;53.404;23.492;2022-07-05T07:42:09;99974.33;;;22.28;74.36
23341;BME280;12239;53.404;23.492;2022-07-05T07:44:59;99976.47;;;22.39;73.26
23341;BME280;12239;53.404;23.492;2022-07-05T07:47:51;99973.75;;;22.44;73.90
23341;BME280;12239;53.404;23.492;2022-07-05T07:50:41;99976.48;;;22.54;73.05
23341;BME280;12239;53.404;23.492;2022-07-05T07:53:30;99982.54;;;22.60;72.16
23341;BME280;12239;53.404;23.492;2022-07-05T07:56:20;99977.67;;;22.64;71.96
23341;BME280;12239;53.404;23.492;2022-07-05T07:59:10;99978.14;;;22.74;72.21
23341;BME280;12239;53.404;23.492;2022-07-05T08:02:00;99974.64;;;22.88;71.05
23341;BME280;12239;53.404;23.492;2022-07-05T08:04:50;99976.34;;;22.94;70.99
23341;BME280;12239;53.404;23.492;2022-07-05T08:07:39;99973.55;;;22.97;69.63
23341;BME280;12239;53.404;23.492;2022-07-05T08:10:29;99972.69;;;22.93;70.22
23341;BME280;12239;53.404;23.492;2022-07-05T08:13:18;99967.34;;;22.92;70.26
23341;BME280;12239;53.404;23.492;2022-07-05T08:16:08;99970.23;;;22.94;70.10
23341;BME280;12239;53.404;23.492;2022-07-05T08:18:58;99970.44;;;22.98;69.03
23341;BME280;12239;53.404;23.492;2022-07-05T08:22:06;99966.65;;;23.00;69.64
23341;BME280;12239;53.404;23.492;2022-07-05T08:24:56;99968.87;;;23.02;69.71
23341;BME280;12239;53.404;23.492;2022-07-05T08:27:46;99971.23;;;22.97;70.37
23341;BME280;12239;53.404;23.492;2022-07-05T08:30:35;99974.14;;;22.99;70.27
23341;BME280;12239;53.404;23.492;2022-07-05T08:33:25;99976.71;;;22.94;69.30
23341;BME280;12239;53.404;23.492;2022-07-05T08:36:14;99974.61;;;22.91;71.05
23341;BME280;12239;53.404;23.492;2022-07-05T08:39:04;99973.69;;;22.99;69.69
23341;BME280;12239;53.404;23.492;2022-07-05T08:41:54;99974.26;;;23.01;70.43
23341;BME280;12239;53.404;23.492;2022-07-05T08:44:44;99966.96;;;23.00;70.73
23341;BME280;12239;53.404;23.492;2022-07-05T08:47:35;99968.66;;;23.08;70.87
23341;BME280;12239;53.404;23.492;2022-07-05T08:50:27;99965.98;;;23.11;70.07
23341;BME280;12239;53.404;23.492;2022-07-05T08:53:17;99964.70;;;23.21;69.48
23341;BME280;12239;53.404;23.492;2022-07-05T08:56:08;99958.64;;;23.29;70.17
23341;BME280;12239;53.404;23.492;2022-07-05T08:58:41;99963.04;;;23.38;68.60
23341;BME280;12239;53.404;23.492;2022-07-05T09:01:31;99967.23;;;23.41;68.56
23341;BME280;12239;53.404;23.492;2022-07-05T09:04:22;99968.98;;;23.41;68.25
23341;BME280;12239;53.404;23.492;2022-07-05T09:07:13;99965.23;;;23.42;69.28
23341;BME280;12239;53.404;23.492;2022-07-05T09:10:05;99965.22;;;23.56;69.41
23341;BME280;12239;53.404;23.492;2022-07-05T09:12:55;99964.98;;;23.56;68.70
23341;BME280;12239;53.404;23.492;2022-07-05T09:15:37;99974.87;;;23.61;68.28
23341;BME280;12239;53.404;23.492;2022-07-05T09:18:39;99979.75;;;23.57;67.76
23341;BME280;12239;53.404;23.492;2022-07-05T09:21:15;99979.88;;;23.55;68.06
23341;BME280;12239;53.404;23.492;2022-07-05T09:23:54;99981.06;;;23.56;69.12
23341;BME280;12239;53.404;23.492;2022-07-05T09:26:45;99976.73;;;23.60;68.12
23341;BME280;12239;53.404;23.492;2022-07-05T09:29:36;99979.85;;;23.73;68.59
23341;BME280;12239;53.404;23.492;2022-07-05T09:32:25;99981.22;;;23.80;68.05
23341;BME280;12239;53.404;23.492;2022-07-05T09:35:22;99986.61;;;23.84;68.50
23341;BME280;12239;53.404;23.492;2022-07-05T09:38:17;99984.81;;;23.93;68.61
23341;BME280;12239;53.404;23.492;2022-07-05T09:41:08;99986.11;;;24.06;68.20
23341;BME280;12239;53.404;23.492;2022-07-05T09:44:00;99988.95;;;24.06;66.37
23341;BME280;12239;53.404;23.492;2022-07-05T09:46:50;99986.15;;;23.93;66.44
23341;BME280;12239;53.404;23.492;2022-07-05T09:49:41;99986.45;;;23.97;67.64
23341;BME280;12239;53.404;23.492;2022-07-05T09:52:32;99990.84;;;24.06;67.08
23341;BME280;12239;53.404;23.492;2022-07-05T09:55:21;99985.94;;;24.10;66.63
23341;BME280;12239;53.404;23.492;2022-07-05T09:58:13;99985.44;;;24.19;67.33
23341;BME280;12239;53.404;23.492;2022-07-05T10:01:02;99983.79;;;24.36;66.78
23341;BME280;12239;53.404;23.492;2022-07-05T10:03:57;99979.86;;;24.49;66.47
23341;BME280;12239;53.404;23.492;2022-07-05T10:06:48;99986.74;;;24.47;65.94
23341;BME280;12239;53.404;23.492;2022-07-05T10:09:38;99994.77;;;24.41;66.40
23341;BME280;12239;53.404;23.492;2022-07-05T10:12:08;99998.63;;;24.42;66.36
23341;BME280;12239;53.404;23.492;2022-07-05T10:14:58;99992.95;;;24.40;64.90
23341;BME280;12239;53.404;23.492;2022-07-05T10:17:50;99991.88;;;24.49;65.49
23341;BME280;12239;53.404;23.492;2022-07-05T10:20:42;99997.29;;;24.53;65.61
23341;BME280;12239;53.404;23.492;2022-07-05T10:23:21;99996.81;;;24.70;65.67
23341;BME280;12239;53.404;23.492;2022-07-05T10:26:11;99998.59;;;24.73;65.84
23341;BME280;12239;53.404;23.492;2022-07-05T10:29:01;99991.27;;;24.73;65.52
23341;BME280;12239;53.404;23.492;2022-07-05T10:31:51;99989.38;;;24.72;65.11
23341;BME280;12239;53.404;23.492;2022-07-05T10:34:34;99985.87;;;24.74;65.27
23341;BME280;12239;53.404;23.492;2022-07-05T10:37:25;99992.48;;;24.76;64.64
23341;BME280;12239;53.404;23.492;2022-07-05T10:40:16;99988.13;;;24.72;64.69
23341;BME280;12239;53.404;23.492;2022-07-05T10:43:07;99986.26;;;24.74;64.29
23341;BME280;12239;53.404;23.492;2022-07-05T10:45:58;99986.98;;;24.68;63.51
23341;BME280;12239;53.404;23.492;2022-07-05T10:48:48;99984.49;;;24.54;63.88
23341;BME280;12239;53.404;23.492;2022-07-05T10:51:57;99978.04;;;24.48;64.99
23341;BME280;12239;53.404;23.492;2022-07-05T11:04:21;99976.61;;;24.69;65.09
23341;BME280;12239;53.404;23.492;2022-07-05T11:06:57;99972.13;;;24.67;64.61
23341;BME280;12239;53.404;23.492;2022-07-05T11:09:59;99969.70;;;24.75;66.43
23341;BME280;12239;53.404;23.492;2022-07-05T11:12:50;99966.80;;;24.89;65.72
23341;BME280;12239;53.404;23.492;2022-07-05T11:15:40;99970.35;;;25.00;65.64
23341;BME280;12239;53.404;23.492;2022-07-05T11:18:50;99972.52;;;24.98;64.93
23341;BME280;12239;53.404;23.492;2022-07-05T11:21:58;99970.54;;;24.94;63.95
23341;BME280;12239;53.404;23.492;2022-07-05T11:24:48;99970.36;;;24.86;63.50
23341;BME280;12239;53.404;23.492;2022-07-05T11:27:38;99965.92;;;24.83;62.45
23341;BME280;12239;53.404;23.492;2022-07-05T11:30:49;99965.75;;;24.81;62.66
23341;BME280;12239;53.404;23.492;2022-07-05T11:33:40;99959.73;;;24.84;63.40
23341;BME280;12239;53.404;23.492;2022-07-05T11:36:31;99948.04;;;24.78;64.04
23341;BME280;12239;53.404;23.492;2022-07-05T11:39:20;99953.23;;;24.78;63.38
23341;BME280;12239;53.404;23.492;2022-07-05T11:42:10;99951.69;;;24.83;64.26
23341;BME280;12239;53.404;23.492;2022-07-05T11:45:00;99950.79;;;24.79;62.93
23341;BME280;12239;53.404;23.492;2022-07-05T11:47:32;99948.49;;;24.83;64.98
23341;BME280;12239;53.404;23.492;2022-07-05T11:50:26;99952.41;;;24.91;62.30
23341;BME280;12239;53.404;23.492;2022-07-05T11:53:21;99947.89;;;24.86;61.05
23341;BME280;12239;53.404;23.492;2022-07-05T11:56:14;99949.74;;;24.91;61.57
23341;BME280;12239;53.404;23.492;2022-07-05T11:59:17;99955.38;;;24.96;60.81
23341;BME280;12239;53.404;23.492;2022-07-05T12:02:06;99951.66;;;25.02;60.90
23341;BME280;12239;53.404;23.492;2022-07-05T12:04:56;99955.59;;;25.09;60.43
23341;BME280;12239;53.404;23.492;2022-07-05T12:07:26;99950.57;;;25.04;59.17
23341;BME280;12239;53.404;23.492;2022-07-05T12:10:16;99950.15;;;25.00;59.51
23341;BME280;12239;53.404;23.492;2022-07-05T12:13:23;99947.16;;;24.92;59.70
23341;BME280;12239;53.404;23.492;2022-07-05T12:16:13;99948.28;;;24.86;60.82
23341;BME280;12239;53.404;23.492;2022-07-05T12:19:03;99944.98;;;24.86;60.04
23341;BME280;12239;53.404;23.492;2022-07-05T12:21:54;99946.23;;;24.92;60.72
23341;BME280;12239;53.404;23.492;2022-07-05T12:24:26;99948.55;;;25.04;59.99
23341;BME280;12239;53.404;23.492;2022-07-05T12:27:05;99944.95;;;25.15;59.72
23341;BME280;12239;53.404;23.492;2022-07-05T12:29:55;99946.41;;;25.28;58.63
23341;BME280;12239;53.404;23.492;2022-07-05T12:32:28;99941.32;;;25.30;58.87
23341;BME280;12239;53.404;23.492;2022-07-05T12:35:27;99942.10;;;25.30;56.58
23341;BME280;12239;53.404;23.492;2022-07-05T12:38:17;99935.84;;;25.22;55.40
23341;BME280;12239;53.404;23.492;2022-07-05T12:41:07;99933.94;;;25.14;55.46
23341;BME280;12239;53.404;23.492;2022-07-05T12:43:58;99928.98;;;25.14;56.27
23341;BME280;12239;53.404;23.492;2022-07-05T12:46:49;99933.60;;;25.28;55.65
23341;BME280;12239;53.404;23.492;2022-07-05T12:52:58;99927.71;;;25.36;53.93
23341;BME280;12239;53.404;23.492;2022-07-05T12:55:49;99937.92;;;25.34;54.75
23341;BME280;12239;53.404;23.492;2022-07-05T12:58:56;99939.50;;;25.29;55.74
23341;BME280;12239;53.404;23.492;2022-07-05T13:01:46;99939.61;;;25.23;55.63
23341;BME280;12239;53.404;23.492;2022-07-05T13:04:36;99939.23;;;25.18;56.96
23341;BME280;12239;53.404;23.492;2022-07-05T13:07:26;99939.08;;;25.16;58.03
23341;BME280;12239;53.404;23.492;2022-07-05T13:10:16;99942.78;;;25.18;59.00
23341;BME280;12239;53.404;23.492;2022-07-05T13:13:07;99940.23;;;25.30;57.48
23341;BME280;12239;53.404;23.492;2022-07-05T13:15:37;99943.67;;;25.36;56.74
23341;BME280;12239;53.404;23.492;2022-07-05T13:18:06;99937.75;;;25.42;57.20
23341;BME280;12239;53.404;23.492;2022-07-05T13:20:38;99940.70;;;25.47;56.40
23341;BME280;12239;53.404;23.492;2022-07-05T13:23:08;99938.79;;;25.43;56.48
23341;BME280;12239;53.404;23.492;2022-07-05T13:25:37;99940.20;;;25.35;55.87
23341;BME280;12239;53.404;23.492;2022-07-05T13:28:12;99938.14;;;25.18;55.57
23341;BME280;12239;53.404;23.492;2022-07-05T13:30:43;99937.59;;;25.01;57.02
23341;BME280;12239;53.404;23.492;2022-07-05T13:33:21;99936.46;;;24.82;56.47
23341;BME280;12239;53.404;23.492;2022-07-05T13:35:51;99938.20;;;24.64;56.66
23341;BME280;12239;53.404;23.492;2022-07-05T13:38:20;99937.17;;;24.53;57.96
23341;BME280;12239;53.404;23.492;2022-07-05T13:40:52;99935.70;;;24.48;58.69
23341;BME280;12239;53.404;23.492;2022-07-05T13:43:24;99935.08;;;24.47;58.47
23341;BME280;12239;53.404;23.492;2022-07-05T13:45:53;99933.95;;;24.45;58.23
23341;BME280;12239;53.404;23.492;2022-07-05T13:48:23;99932.47;;;24.40;58.58
23341;BME280;12239;53.404;23.492;2022-07-05T13:51:12;99935.18;;;24.37;59.69
23341;BME280;12239;53.404;23.492;2022-07-05T13:53:45;99933.95;;;24.46;58.72
23341;BME280;12239;53.404;23.492;2022-07-05T13:56:14;99935.54;;;24.53;59.43
23341;BME280;12239;53.404;23.492;2022-07-05T13:58:44;99930.00;;;24.61;58.53
23341;BME280;12239;53.404;23.492;2022-07-05T14:01:13;99933.42;;;24.65;57.51
23341;BME280;12239;53.404;23.492;2022-07-05T14:03:51;99931.68;;;24.70;55.68
23341;BME280;12239;53.404;23.492;2022-07-05T14:06:21;99931.09;;;24.73;55.86
23341;BME280;12239;53.404;23.492;2022-07-05T14:08:50;99928.05;;;24.76;56.81
23341;BME280;12239;53.404;23.492;2022-07-05T14:11:20;99927.92;;;24.79;55.44
23341;BME280;12239;53.404;23.492;2022-07-05T14:13:49;99928.91;;;24.75;55.62
23341;BME280;12239;53.404;23.492;2022-07-05T14:16:24;99932.73;;;24.67;54.82
23341;BME280;12239;53.404;23.492;2022-07-05T14:18:53;99935.40;;;24.55;55.51
23341;BME280;12239;53.404;23.492;2022-07-05T14:21:26;99933.98;;;24.40;55.75
23341;BME280;12239;53.404;23.492;2022-07-05T14:23:58;99928.00;;;24.35;56.76
23341;BME280;12239;53.404;23.492;2022-07-05T14:26:28;99931.21;;;24.34;57.04
23341;BME280;12239;53.404;23.492;2022-07-05T14:28:58;99928.23;;;24.28;57.28
23341;BME280;12239;53.404;23.492;2022-07-05T14:31:27;99928.13;;;24.25;57.25
23341;BME280;12239;53.404;23.492;2022-07-05T14:33:59;99932.08;;;24.22;57.42
23341;BME280;12239;53.404;23.492;2022-07-05T14:36:48;99931.48;;;24.17;57.06
23341;BME280;12239;53.404;23.492;2022-07-05T14:39:20;99927.52;;;24.15;56.78
23341;BME280;12239;53.404;23.492;2022-07-05T14:41:50;99926.95;;;24.13;56.85
23341;BME280;12239;53.404;23.492;2022-07-05T14:44:19;99926.15;;;24.12;57.05
23341;BME280;12239;53.404;23.492;2022-07-05T14:46:59;99921.04;;;24.11;57.20